For quick login in and fast entrance.
M’enregistrer FAQ Connexion 
Poster un nouveau sujet Répondre au sujet  [ 59 messages ]  Aller à la page Précédente  1, 2, 3, 4  Suivante

Sam 30 Juil 2011 20:29

 Re: Violente sortie de piste d'un avion de Caribbean Airline
MessagePosté: Sam 30 Juil 2011 20:29 
Hors ligne
Observateur Avisé
Observateur Avisé
Avatar de l’utilisateur

Inscription: Ven 28 Déc 2007 04:58
Localisation: Martinique
Triste nouvelle que je viens d'apprendre , alors que la compagnie commençait à rajeunir sa flotte . La petite concurrence ce frotte les mains, je parle de Redjet .

Voici les metars :


SYCJ 300700Z 00000KT 9000 BKN015 24/24 Q1008 NOSIG
SYCJ 300600Z 00000KT 9000 BKN015 24/24 Q1008 NOSIG
SYCJ 300500Z 00000KT 9000 -SHRA FEW014CB BKN015 25/24 Q1009 CB-NE-ENE NOSIG
SYCJ 300423Z 00000KT 9999 TS FEW015CB SCT016 CB-NE-ENE NOSIG
SYCJ 300400Z 00000KT 9999 FEW016 24/24 Q1009 NOSIG
SYCJ 300300Z 00000KT 9999 FEW016 25/24 Q1010 NOSIG
SYCJ 300200Z 00000KT 9999 FEW017 SCT300 25/24 Q1010 NOSIG
SYCJ 300100Z 00000KT 9999 FEW017 SCT300 25/24 Q1010 NOSIG

Image

Immat : 9Y-PBM

Image

Le prochain 737-800 de la compagnie est en vol d'essai à Seattle . 9Y-SXM .

Image


Modifié en dernier par Riri le Sam 30 Juil 2011 22:15, modifié 1 fois.

  
home Haut
 Profil Site Internet  
Répondre en citant le message  
Aider le Site avec PayPal

Sam 30 Juil 2011 20:45

 Re: Violente sortie de piste d'un avion de Caribbean Airline
MessagePosté: Sam 30 Juil 2011 20:45 
Hors ligne
Observateur Avisé
Observateur Avisé
Avatar de l’utilisateur

Inscription: Ven 28 Déc 2007 04:58
Localisation: Martinique
En Anglais .



  
home Haut
 Profil Site Internet  
Répondre en citant le message  

Sam 30 Juil 2011 22:31

 Re: Violente sortie de piste d'un avion de Caribbean Airline
MessagePosté: Sam 30 Juil 2011 22:31 
Hors ligne
Commandant des Nuages
Commandant des Nuages
Avatar de l’utilisateur

Inscription: Lun 08 Déc 2008 23:10
Localisation: COCKPIT
GuidoCh a écrit:
Radar a écrit:
154 passagers et 8 membres d'équipage à bord,


j'avoue être surpris, 8 membres d'équipage cela fait beaucoup! Mettons que 3 pilotes car aller retour long, mais 5 personnes pour 154 pax, cela fait un pour 30 pax...


Non,ça ne m'étonne pas du tout,beaucoup de compagnies programment 6 PNC sur B737-800 (RAM entre autre il y a quelques mois) d'ailleurs sur ce type d'avion,il y a 6 sièges prévus pour les PNC.

_________________
T'es sûr de ce que tu avances? Va vérifier dans tes docs, les miennes sont depuis longtemps en cave!


  
home Haut
 Profil  
Répondre en citant le message  

Sam 30 Juil 2011 22:37

 Re: Violente sortie de piste d'un avion de Caribbean Airline
MessagePosté: Sam 30 Juil 2011 22:37 
Hors ligne
Commandant des Nuages
Commandant des Nuages
Avatar de l’utilisateur

Inscription: Lun 08 Déc 2008 23:10
Localisation: COCKPIT
Glide a écrit:
remarque sur PPrune : reverses déployes mais pas de flaps ni slats ? cela ressemble à l'accident du 738 d' AA en Jamaique, non ?


Possible qu'un "ALL FLAPS UP landing" a été effectué suite à un problème de volets,et dans ce cas la vitesse au toucher est énorme (déjà en conditions normales le B738 cavale,que dire d'un "ALL FLAPS UP landing" :oops: )


Nephi a écrit:
Pilotes sourds ou tunnelisés là aussi ? TOO LOW, FLAPS ?


Dans le cas d'un problème lié au volets,la "check-list" veut qu'on passe sur "FLAPS INHIBIT" donc l'alarme est by-passée...

_________________
T'es sûr de ce que tu avances? Va vérifier dans tes docs, les miennes sont depuis longtemps en cave!


  
home Haut
 Profil  
Répondre en citant le message  

Dim 31 Juil 2011 05:01

 Re: Violente sortie de piste d'un avion de Caribbean Airline
MessagePosté: Dim 31 Juil 2011 05:01 
Hors ligne
Commandant des Nuages
Commandant des Nuages
Avatar de l’utilisateur

Inscription: Mer 29 Sep 2010 17:57
Image
http://today.msnbc.msn.com/id/43954430/ns/world_news-americas/

_________________
Les gazouillis sont là 8)


  
home Haut
 Profil Site Internet  
Répondre en citant le message  

Dim 31 Juil 2011 07:43

 Re: Violente sortie de piste d'un avion de Caribbean Airline
MessagePosté: Dim 31 Juil 2011 07:43 
Hors ligne
Observateur Avisé
Observateur Avisé

Inscription: Jeu 25 Sep 2008 18:13
Localisation: MTY
Nephi a écrit:
hboisdenghien a écrit:
Nephi a écrit:
Pilotes sourds ou tunnelisés là aussi ? TOO LOW, FLAPS ?


arrete moi ce truc qui gueule, j'entend plus ce que me dit l'hotesse a l'oreille ! ! ! !

A l'oreille, à l'oreille... depuis quand une hôtesse est à l'oreille quand elle est avec des pilotes... elle est dans une autre position d'habitude...
Désolé, je suis déjà :arrow:


Je voulais rester poli !!! mais on imagine le reste


  
home Haut
 Profil Site Internet  
Répondre en citant le message  

Dim 31 Juil 2011 07:49

 Re: Violente sortie de piste d'un avion de Caribbean Airline
MessagePosté: Dim 31 Juil 2011 07:49 
Hors ligne
Observateur Avisé
Observateur Avisé

Inscription: Jeu 25 Sep 2008 18:13
Localisation: MTY
hydra a écrit:


Pourquoi met on un ravin en bout de piste, idem AF a toronto
On mieux de mettre un bac a sable comme sur les autoroutes pour arreter les camions
L'air senegal sorti de piste recement n'etait pas trop endomage, juste boueux


  
home Haut
 Profil Site Internet  
Répondre en citant le message  

Dim 31 Juil 2011 09:45

 Re: Violente sortie de piste d'un avion de Caribbean Airline
MessagePosté: Dim 31 Juil 2011 09:45 
Hors ligne
Pilote de Funiculaire
Pilote de Funiculaire
Avatar de l’utilisateur

Inscription: Mer 09 Juil 2008 10:18
Localisation: 50°38'04,70"N 5°43'27,65"E (mon hamac)
Kalitta à Zaventem était dans la même situation. Les pistes sont allongées au fil des ans et (Bierset en est un autre exemple) elles sont posées sur des remblais qui s'élèvent de plus en plus. Toutes les pistes ne sont pas situées en plaine et comme beaucoup furent créées pour recevoir des avions militaires dans les '40s les besoins en longueur des runways n'étaient pas les mêmes que pour nos jolis 747 quadragénaires.

_________________
CRAZY PAPY, OldMobile


  
home Haut
 Profil Site Internet  
Répondre en citant le message  

Dim 31 Juil 2011 11:32

 Re: Violente sortie de piste d'un avion de Caribbean Airline
MessagePosté: Dim 31 Juil 2011 11:32 
Hors ligne
Amiral de l'Air
Avatar de l’utilisateur

Inscription: Mar 14 Aoû 2007 12:53
Localisation: La France du Sud de la Loire
Pourquoi on met un ravin ?

Parceque nous sommes en région tropicale, pour ne pas dire équatoriale ..

Les pluies sont des trombes et pour évacuer tout ça, une seule solution, les drains.

D'ailleurs je suis surpris que personne n'ait évoqué la possible et vraisemblable sur contamination de la piste.
Dans ces coins, souvent les drains ne suffisent pas , tant les precipitations sont abondantes.

Pour finir, nous sommes ici,dans la zone inter tropicale de convergence
.


  
home Haut
 Profil  
Répondre en citant le message  

Dim 31 Juil 2011 15:15

 Re: Violente sortie de piste d'un avion de Caribbean Airline
MessagePosté: Dim 31 Juil 2011 15:15 
Hors ligne
Principicule de Taxiway
Principicule de Taxiway

Inscription: Dim 20 Mar 2011 13:18
GuidoCh a écrit:
Radar a écrit:
154 passagers et 8 membres d'équipage à bord,


j'avoue être surpris, 8 membres d'équipage cela fait beaucoup! Mettons que 3 pilotes car aller retour long, mais 5 personnes pour 154 pax, cela fait un pour 30 pax...



Salut,


Si c'était du bi-classes normale qu'il et 5 PNC, 4 PNC pour l'éco plus 1 PNC généralement le/la Chef de cabine pour la business classe (enfin chez nous s'est comme ça), sachant qu'il faut mini 4 PNC sur B738.


  
home Haut
 Profil  
Répondre en citant le message  

Dim 31 Juil 2011 15:37

 Re: Violente sortie de piste d'un avion de Caribbean Airline
MessagePosté: Dim 31 Juil 2011 15:37 
Citation:
Immat : 9Y-PBM
Le prochain 737-800 de la compagnie est en vol d'essai à Seattle . 9Y-SXM

On pourrait leur proposer une immat 9Y-SRM en remplacement ? non?
Ok :arrow: :arrow:


  
home Haut
  
Répondre en citant le message  

Dim 31 Juil 2011 15:43

 Re: Violente sortie de piste d'un avion de Caribbean Airline
MessagePosté: Dim 31 Juil 2011 15:43 
Hors ligne
Amiral de l'Air
Avatar de l’utilisateur

Inscription: Mar 14 Aoû 2007 12:53
Localisation: La France du Sud de la Loire
Ces 737 sont également exploités sur SXM, un bel oiseau !


Image


  
home Haut
 Profil  
Répondre en citant le message  

Dim 31 Juil 2011 17:16

 Re: Violente sortie de piste d'un avion de Caribbean Airline
MessagePosté: Dim 31 Juil 2011 17:16 
Hors ligne
Commandant des Nuages
Commandant des Nuages
Avatar de l’utilisateur

Inscription: Lun 08 Déc 2008 23:10
Localisation: COCKPIT
D'après la météo lors de l'accident,METAR :

SYCJ 300600Z 00000KT 9000 BKN015 24/24 Q1008 NOSIG
SYCJ 300500Z 00000KT 9000 -SHRA FEW014CB BKN015 25/24 Q1009 CB-NE-ENE NOSIG


SHRA : averses de pluie.

*Il pleuvait.
*La piste de l'aéroport Georgetown orientée en 06/24 a une longueur totale de 2270 mètres.
*Le B737-800 avec 157 passagers et 6 membres d'équipage était chargé (au moins 15.5 Tonnes)
*L'avion avait certainement un problème de volets qui ne sortaient pas en approche.

Tous ces facteurs ont contribué malheureusement à cette sortie de piste.

_________________
T'es sûr de ce que tu avances? Va vérifier dans tes docs, les miennes sont depuis longtemps en cave!


  
home Haut
 Profil  
Répondre en citant le message  

Dim 31 Juil 2011 17:43

 Re: Violente sortie de piste d'un avion de Caribbean Airline
MessagePosté: Dim 31 Juil 2011 17:43 
Hors ligne
Observateur Avisé
Observateur Avisé

Inscription: Dim 08 Juin 2008 04:56
Localisation: Océan Indien
GuidoCh a écrit:
Radar a écrit:
154 passagers et 8 membres d'équipage à bord,


j'avoue être surpris, 8 membres d'équipage cela fait beaucoup! Mettons que 3 pilotes car aller retour long, mais 5 personnes pour 154 pax, cela fait un pour 30 pax...

tu es décidément un fervent :evil: partisan de la réduction des effectifs


  
home Haut
 Profil  
Répondre en citant le message  

Dim 31 Juil 2011 17:45

 Re: Violente sortie de piste d'un avion de Caribbean Airline
MessagePosté: Dim 31 Juil 2011 17:45 
Hors ligne
Pilote de Funiculaire
Pilote de Funiculaire
Avatar de l’utilisateur

Inscription: Dim 08 Oct 2006 11:38
Localisation: chez moi, cong
bamou a écrit:

*Il pleuvait.
*La piste de l'aéroport Georgetown orientée en 06/24 a une longueur totale de 2270 mètres.
*Le B737-800 avec 157 passagers et 6 membres d'équipage était chargé (au moins 15.5 Tonnes)
*L'avion avait certainement un problème de volets qui ne sortaient pas en approche.

Tous ces facteurs ont contribué malheureusement à cette sortie de piste.


Merci pour tes précisions, bamou.

_________________
« When the power of love overcome the love of power...the World will know peace... »

Jimi Hendrix.


  
home Haut
 Profil  
Répondre en citant le message  
Afficher les messages postés depuis:  Trier par  
Poster un nouveau sujet Répondre au sujet  [ 59 messages ]  Aller à la page Précédente  1, 2, 3, 4  Suivante

Heures au format UTC + 1 heure


Qui est en ligne

Utilisateurs parcourant ce forum: Aucun utilisateur enregistré et 0 invités


Vous ne pouvez pas poster de nouveaux sujets
Vous ne pouvez pas répondre aux sujets
Vous ne pouvez pas éditer vos messages
Vous ne pouvez pas supprimer vos messages

Aller à:  
Flux RSS Flux RSS Liste des flux Liste des flux
0 Développé par phpBB® Forum Software © phpBB Group
Traduction par phpBB-fr.com
phpBB SEO